Aviation Digital Data Service (ADDS)

Output produced by METARs form (2032 UTC 20 July 2018)
found at http://www.aviationweather.gov/adds/metars/
 
KPIT 201951Z 22008KT 10SM SCT040 BKN075 BKN150 24/21 A2994 RMK AO2 SLP138 RAE23 TSE14 CB DSNT NE P0014 T02390211 $
KPIT 201915Z 19003KT 10SM -RA SCT042CB BKN075 BKN150 22/19 A2996 RMK AO2 TSE14 CB NE MOV NE P0014 T02220194 $
KPIT 201851Z 22009KT 10SM R28R/4000VP6000FT -TSRA BKN045CB BKN085 BKN250 22/18 A2998 RMK AO2 WSHFT 1750 RAB10 TSB49 SLP152 OCNL LTGCC VC S TS VC S MOV NE P0000 T02220183
KPIT 201810Z 24012KT 10SM -RA BKN045 BKN090 BKN250 26/17 A2999 RMK AO2 WSHFT 1750 RAB10 P0000 T02560172
KPIT 201751Z 21011KT 10SM BKN045 BKN090 BKN250 27/17 A2999 RMK AO2 SLP152 VCSH S-W T02720167 10283 20206 56008
KPIT 201651Z 19008KT 10SM SCT045 SCT130 BKN250 28/16 A2999 RMK AO2 LTG DSNT SW SLP152 T02830161
KPIT 201551Z 20012G16KT 10SM FEW055 FEW120 SCT250 27/16 A3001 RMK AO2 SLP160 DSNT CB SW T02720156
KPIT 201451Z 15009G15KT 120V190 10SM FEW055 FEW120 BKN250 26/16 A3001 RMK AO2 SLP160 T02560156 58007
KPIT 201351Z 17007KT 10SM FEW055 FEW120 BKN250 24/16 A3002 RMK AO2 SLP164 T02440156
KPIT 201251Z 14009KT 10SM FEW055 FEW070 BKN250 22/14 A3003 RMK AO2 SLP167 T02220144
KPIT 201151Z 14005KT 10SM FEW050 SCT070 21/14 A3003 RMK AO2 SLP168 T02060144 10211 20189 53004
KPIT 201051Z 14005KT 10SM SCT070 SCT250 19/14 A3003 RMK AO2 SLP166 T01940139
KPIT 200951Z 14006KT 10SM SCT070 SCT250 19/14 A3002 RMK AO2 SLP164 T01940139
KPIT 200851Z 13006KT 10SM SCT070 SCT250 19/14 A3002 RMK AO2 SLP164 T01940144 56004
KPIT 200751Z 15006KT 10SM BKN070 20/14 A3002 RMK AO2 SLP164 T02000144
KPIT 200651Z 14005KT 10SM BKN070 21/14 A3003 RMK AO2 SLP166 T02060144
KPIT 200551Z 16005KT 10SM FEW250 21/14 A3003 RMK AO2 SLP168 T02060144 10267 20206 58001
KPIT 200451Z 13005KT 10SM FEW250 22/15 A3004 RMK AO2 SLP170 T02170150 402780144
KPIT 200351Z 14005KT 10SM SCT250 23/14 A3004 RMK AO2 SLP170 T02280144
KPIT 200251Z 13003KT 10SM BKN250 23/14 A3003 RMK AO2 SLP169 T02280144 53003
KPIT 200151Z 15003KT 10SM BKN250 24/14 A3003 RMK AO2 SLP167 T02440139
KPIT 200051Z 12005KT 10SM BKN250 25/14 A3002 RMK AO2 SLP165 T02500139
KPIT 192351Z 15005KT 10SM SCT250 27/13 A3002 RMK AO2 SLP166 T02670133 10278 20261 58009
KPIT 192251Z 16005KT 10SM SCT250 27/12 A3003 RMK AO2 SLP169 T02720122
KPIT 192151Z VRB04KT 10SM BKN250 28/12 A3005 RMK AO2 SLP175 T02780122
KPIT 192051Z 00000KT 10SM BKN250 27/11 A3005 RMK AO2 SLP177 T02720106 56012